Argyle, Minnesota
Current Conditions -  °F | °C
As of 3:35 AM on Sunday 23 Nov 2014 (Local Time) from KGAF Reporting Station
Haze Haze  
Wind Chill: 24°   Ceiling: Unl
Heat Index: 32°   Visibility: 5mi
Dew Point: 32°   Wind: 9mph
Humidity: 100%   Direction: 180°S
Pressure: 29.34"   Gusts: NA
Location:  48.33°N, 96.82°W
Report Text: KGAF 230935Z AUTO 18008KT 5SM BR FEW006 00/00 A2934 RMK AO2
Loading
Personal Weather Stations






























Interactive Weather Map New forecast layout! Learn more

10-Day Weather Forecast

Advertisements
Track Severe Weather on mobile